Time;durP1;ratioP1;P1;durP2;ratioP2;P2;SDS_P1;SDS_P2;PMS_P1;PMS_P2;Temp;Humidity;BMP_temperature;BMP_pressure;BME280_temperature;BME280_humidity;BME280_pressure;Samples;Min_cycle;Max_cycle;Signal;HPM_P1;HPM_P2
2024/01/04 00:00:29;;;;;;;0.40;0.40;;;7.80;99.90;;;;;;5050404;28;20204;-85
2024/01/04 00:02:55;;;;;;;1.40;0.60;;;7.60;99.90;;;;;;5030558;28;20217;-85
2024/01/04 00:05:21;;;;;;;3.00;0.50;;;;;;;;;;5030971;28;20438;-84
2024/01/04 00:07:46;;;;;;;0.80;0.53;;;7.90;99.90;;;;;;5047858;28;20195;-85
2024/01/04 00:10:14;;;;;;;2.73;0.90;;;8.00;99.90;;;;;;5037840;28;21073;-83
2024/01/04 00:12:41;;;;;;;0.60;0.30;;;7.90;99.90;;;;;;5043644;28;20196;-85
2024/01/04 00:15:07;;;;;;;0.40;0.30;;;7.90;99.90;;;;;;5048572;28;20208;-81
2024/01/04 00:17:35;;;;;;;0.30;0.30;;;7.90;99.90;;;;;;5027992;28;20212;-84
2024/01/04 00:20:01;;;;;;;2.85;0.38;;;7.60;99.90;;;;;;5046087;28;20252;-86
2024/01/04 00:22:26;;;;;;;1.77;0.83;;;10.00;99.90;;;;;;5048395;28;20359;-83
2024/01/04 00:24:53;;;;;;;2.10;0.80;;;7.80;99.90;;;;;;5049819;28;20488;-84
2024/01/04 00:27:18;;;;;;;1.15;0.50;;;7.80;99.90;;;;;;5032102;28;20804;-86
2024/01/04 00:29:44;;;;;;;0.87;0.80;;;9.10;99.90;;;;;;5046102;28;20192;-88
2024/01/04 00:32:10;;;;;;;1.33;0.63;;;7.80;99.90;;;;;;5025090;28;20189;-87
2024/01/04 00:34:36;;;;;;;0.60;0.60;;;7.80;99.90;;;;;;5027727;28;20444;-86
2024/01/04 00:37:06;;;;;;;0.40;0.30;;;7.90;99.90;;;;;;5045750;28;21092;-87
2024/01/04 00:39:31;;;;;;;4.97;0.88;;;8.00;99.90;;;;;;5041097;28;20189;-86
2024/01/04 00:41:58;;;;;;;2.10;0.47;;;8.10;99.90;;;;;;5034921;28;20209;-90
2024/01/04 00:44:24;;;;;;;4.70;0.55;;;8.80;99.90;;;;;;5043800;28;20483;-86
2024/01/04 00:46:52;;;;;;;0.63;0.60;;;8.30;99.90;;;;;;5027186;28;20213;-87
2024/01/04 00:49:18;;;;;;;1.13;0.63;;;9.10;99.90;;;;;;5026477;28;20180;-87
2024/01/04 00:51:47;;;;;;;0.93;0.40;;;8.20;99.90;;;;;;5046062;28;20257;-85
2024/01/04 00:54:13;;;;;;;0.50;0.30;;;8.30;99.90;;;;;;5018254;28;20247;-84
2024/01/04 00:56:38;;;;;;;0.40;0.40;;;8.30;99.90;;;;;;5028034;28;20205;-88
2024/01/04 00:59:04;;;;;;;1.17;0.77;;;8.20;99.90;;;;;;5029092;28;20511;-87
2024/01/04 01:01:32;;;;;;;3.80;0.70;;;8.10;99.90;;;;;;5028199;28;20189;-85
2024/01/04 01:04:00;;;;;;;8.38;1.08;;;8.80;99.90;;;;;;5029123;28;20184;-86
2024/01/04 01:06:29;;;;;;;0.50;0.50;;;8.70;99.90;;;;;;5032470;28;20760;-85
2024/01/04 01:08:56;;;;;;;0.60;0.52;;;8.40;99.90;;;;;;5043987;28;20185;-88
2024/01/04 01:11:21;;;;;;;0.70;0.60;;;8.40;99.90;;;;;;5030678;28;20189;-85
2024/01/04 01:13:47;;;;;;;1.23;0.50;;;9.10;99.90;;;;;;5028687;28;20212;-86
2024/01/04 01:16:14;;;;;;;2.67;0.40;;;7.90;99.90;;;;;;5034919;28;20253;-85
2024/01/04 01:18:41;;;;;;;1.08;0.63;;;8.00;99.90;;;;;;5052482;28;20193;-83
2024/01/04 01:21:09;;;;;;;1.70;0.38;;;8.20;99.90;;;;;;5023354;28;20193;-86
2024/01/04 01:23:34;;;;;;;0.40;0.35;;;8.40;99.90;;;;;;5022183;28;20281;-84
2024/01/04 01:26:02;;;;;;;11.50;0.50;;;8.40;99.90;;;;;;5038874;28;20197;-84
2024/01/04 01:28:27;;;;;;;10.70;1.00;;;8.50;99.90;;;;;;5023692;28;20223;-84
2024/01/04 01:30:53;;;;;;;0.40;0.40;;;8.60;99.90;;;;;;5021109;28;20816;-87
2024/01/04 01:33:19;;;;;;;1.47;0.70;;;8.60;99.90;;;;;;5025208;28;20267;-83
2024/01/04 01:35:44;;;;;;;3.00;0.40;;;8.60;99.90;;;;;;5022475;28;20209;-88
2024/01/04 01:38:10;;;;;;;2.77;0.77;;;8.60;99.90;;;;;;5040831;28;20189;-84
2024/01/04 01:40:36;;;;;;;0.73;0.40;;;8.60;99.90;;;;;;5023692;28;20443;-86
2024/01/04 01:43:01;;;;;;;5.37;0.67;;;8.60;99.90;;;;;;5019338;28;20235;-85
2024/01/04 01:45:27;;;;;;;0.40;0.40;;;8.60;99.90;;;;;;5028453;28;20703;-87
2024/01/04 01:47:53;;;;;;;0.73;0.73;;;8.60;99.90;;;;;;5033345;28;20729;-87
2024/01/04 01:50:20;;;;;;;1.90;0.60;;;10.40;99.90;;;;;;5026247;28;20186;-88
2024/01/04 01:52:48;;;;;;;0.80;0.50;;;8.60;99.90;;;;;;5034118;28;20196;-86
2024/01/04 01:55:16;;;;;;;4.80;0.80;;;9.70;99.90;;;;;;5031209;28;20272;-88
2024/01/04 01:57:43;;;;;;;0.50;0.30;;;8.60;99.90;;;;;;5049690;28;20523;-89
2024/01/04 02:00:13;;;;;;;0.50;0.50;;;9.80;99.90;;;;;;5028084;28;20216;-87
2024/01/04 02:02:39;;;;;;;0.30;0.22;;;8.70;99.90;;;;;;5045413;28;20197;-89
2024/01/04 02:05:07;;;;;;;2.40;0.83;;;8.70;99.90;;;;;;5026384;28;20223;-90
2024/01/04 02:07:32;;;;;;;0.70;0.30;;;8.70;99.90;;;;;;5032142;28;20189;-87
2024/01/04 02:09:58;;;;;;;1.17;0.60;;;8.70;99.90;;;;;;5030748;28;20611;-85
2024/01/04 02:12:24;;;;;;;0.50;0.50;;;;;;;;;;5048234;28;20188;-86
2024/01/04 02:14:53;;;;;;;0.50;0.30;;;8.70;99.90;;;;;;5030444;28;20212;-87
2024/01/04 02:17:19;;;;;;;0.40;0.30;;;9.50;99.90;;;;;;5051753;28;20500;-87
2024/01/04 02:19:46;;;;;;;0.45;0.40;;;8.20;99.90;;;;;;5035190;28;20185;-87
2024/01/04 02:22:11;;;;;;;0.47;0.40;;;9.40;99.90;;;;;;5048847;28;20261;-88
2024/01/04 02:24:37;;;;;;;0.63;0.40;;;;;;;;;;5034491;28;20204;-86
2024/01/04 02:27:03;;;;;;;1.25;0.50;;;8.60;99.90;;;;;;5037075;28;20215;-85
2024/01/04 02:29:29;;;;;;;0.30;0.30;;;8.50;99.90;;;;;;5036711;28;20186;-87
2024/01/04 02:31:55;;;;;;;2.93;0.83;;;;;;;;;;5060460;28;20252;-83
2024/01/04 02:34:21;;;;;;;3.50;0.77;;;;;;;;;;5059626;28;20212;-86
2024/01/04 02:36:47;;;;;;;0.30;0.20;;;;;;;;;;5039746;28;20459;-86
2024/01/04 02:39:13;;;;;;;0.80;0.40;;;8.40;99.90;;;;;;5039277;28;20435;-88
2024/01/04 02:41:39;;;;;;;0.77;0.60;;;;;;;;;;5035556;28;20442;-86
2024/01/04 02:44:05;;;;;;;0.40;0.30;;;8.40;99.90;;;;;;5039515;28;20181;-86
2024/01/04 02:46:31;;;;;;;0.70;0.60;;;;;;;;;;5038973;28;20279;-87
2024/01/04 02:48:57;;;;;;;0.40;0.30;;;;;;;;;;5038783;28;20185;-87
2024/01/04 02:51:25;;;;;;;0.30;0.20;;;8.30;99.90;;;;;;5041688;28;20204;-86
2024/01/04 02:53:50;;;;;;;0.70;0.40;;;8.30;99.90;;;;;;5035123;28;20196;-87
2024/01/04 02:56:16;;;;;;;0.97;0.27;;;;;;;;;;5035059;28;20205;-87
2024/01/04 02:58:45;;;;;;;1.90;0.30;;;8.40;99.90;;;;;;5034372;28;20311;-86
2024/01/04 03:01:11;;;;;;;0.40;0.20;;;8.30;99.90;;;;;;5050253;28;20449;-86
2024/01/04 03:03:40;;;;;;;0.30;0.30;;;8.30;99.90;;;;;;5033344;28;20238;-86
2024/01/04 03:06:05;;;;;;;2.58;0.40;;;9.10;99.90;;;;;;5031263;28;20262;-87
2024/01/04 03:08:31;;;;;;;4.10;0.37;;;;;;;;;;5036148;28;20226;-85
2024/01/04 03:10:57;;;;;;;0.30;0.30;;;8.40;99.90;;;;;;5053918;28;20267;-91
2024/01/04 03:13:23;;;;;;;1.17;0.40;;;8.50;99.90;;;;;;5033693;28;20220;-86
2024/01/04 03:15:48;;;;;;;2.67;0.43;;;8.40;99.90;;;;;;5048725;28;20458;-86
2024/01/04 03:18:14;;;;;;;0.40;0.30;;;8.30;99.90;;;;;;5032338;28;20181;-85
2024/01/04 03:20:39;;;;;;;2.10;1.03;;;8.30;99.90;;;;;;5035075;28;20266;-87
2024/01/04 03:23:05;;;;;;;0.70;0.70;;;8.30;99.90;;;;;;5050802;28;20331;-88
2024/01/04 03:25:31;;;;;;;1.30;0.50;;;8.30;99.90;;;;;;5028739;28;20567;-85
2024/01/04 03:27:57;;;;;;;0.43;0.20;;;8.20;99.90;;;;;;5032592;28;20177;-86
2024/01/04 03:30:22;;;;;;;0.30;0.30;;;8.20;99.90;;;;;;5038159;28;20219;-87
2024/01/04 03:32:48;;;;;;;0.60;0.37;;;8.20;99.90;;;;;;5050733;28;20196;-87
2024/01/04 03:35:14;;;;;;;1.00;0.30;;;;;;;;;;5051685;28;20219;-89
2024/01/04 03:37:43;;;;;;;0.70;0.40;;;8.10;99.90;;;;;;5040099;28;20185;-83
2024/01/04 03:40:09;;;;;;;0.40;0.30;;;9.60;99.90;;;;;;5037888;28;20562;-86
2024/01/04 03:42:36;;;;;;;1.77;0.60;;;;;;;;;;5031277;28;20217;-85
2024/01/04 03:45:02;;;;;;;0.40;0.30;;;7.90;99.90;;;;;;5033725;28;20459;-88
2024/01/04 03:47:28;;;;;;;0.60;0.30;;;;;;;;;;5032045;28;20192;-87
2024/01/04 03:49:59;;;;;;;0.77;0.52;;;7.80;99.90;;;;;;5051872;28;20431;-89
2024/01/04 03:52:25;;;;;;;0.30;0.20;;;;;;;;;;5052540;28;20641;-89
2024/01/04 03:54:50;;;;;;;0.95;0.35;;;7.90;99.90;;;;;;5043027;28;20207;-84
2024/01/04 03:57:16;;;;;;;0.60;0.30;;;;;;;;;;5042817;28;20649;-90
2024/01/04 03:59:42;;;;;;;1.13;0.50;;;8.00;99.90;;;;;;5034055;28;20299;-89
2024/01/04 04:02:10;;;;;;;0.50;0.50;;;8.10;99.90;;;;;;5031076;28;20817;-87
2024/01/04 04:04:35;;;;;;;0.30;0.20;;;8.10;99.90;;;;;;5034492;28;20215;-89
2024/01/04 04:07:01;;;;;;;0.30;0.30;;;;;;;;;;5031491;28;20193;-88
2024/01/04 04:09:27;;;;;;;0.53;0.33;;;;;;;;;;5029974;28;20235;-87
2024/01/04 04:11:53;;;;;;;2.63;0.77;;;8.20;99.90;;;;;;5030246;28;20427;-86
2024/01/04 04:14:19;;;;;;;3.43;0.40;;;;;;;;;;5033314;28;20441;-88
2024/01/04 04:16:44;;;;;;;0.70;0.40;;;8.20;99.90;;;;;;5032709;28;20227;-84
2024/01/04 04:19:10;;;;;;;1.03;0.50;;;;;;;;;;5047397;28;20424;-86
2024/01/04 04:21:36;;;;;;;0.50;0.33;;;8.20;99.90;;;;;;5049356;28;20178;-88
2024/01/04 04:24:02;;;;;;;7.00;0.50;;;;;;;;;;5029470;28;20467;-86
2024/01/04 04:26:28;;;;;;;1.33;0.50;;;;;;;;;;5032991;28;20211;-86
2024/01/04 04:28:54;;;;;;;15.33;0.63;;;8.10;99.90;;;;;;5033610;28;20527;-86
2024/01/04 04:31:20;;;;;;;1.58;0.85;;;;;;;;;;5052256;28;20431;-87
2024/01/04 04:33:47;;;;;;;3.42;0.40;;;8.20;99.90;;;;;;5034531;28;20694;-86
2024/01/04 04:36:13;;;;;;;3.03;0.82;;;8.10;99.90;;;;;;5030381;28;20204;-85
2024/01/04 04:38:40;;;;;;;4.53;0.45;;;8.10;99.90;;;;;;5050461;28;20204;-88
2024/01/04 04:41:07;;;;;;;0.85;0.52;;;8.10;99.90;;;;;;5033226;28;20867;-88
2024/01/04 04:43:33;;;;;;;0.55;0.55;;;8.70;99.90;;;;;;5054952;28;20212;-85
2024/01/04 04:45:59;;;;;;;0.40;0.30;;;7.60;99.90;;;;;;5041448;28;20696;-85
2024/01/04 04:48:25;;;;;;;0.50;0.43;;;;;;;;;;5038072;28;20196;-85
2024/01/04 04:50:53;;;;;;;1.20;0.30;;;8.10;99.90;;;;;;5034229;28;20423;-85
2024/01/04 04:53:19;;;;;;;0.45;0.40;;;;;;;;;;5034834;28;20208;-86
2024/01/04 04:55:45;;;;;;;1.17;0.40;;;;;;;;;;5047865;28;20212;-85
2024/01/04 04:58:11;;;;;;;0.40;0.32;;;8.10;99.90;;;;;;5037062;28;20547;-88
2024/01/04 05:00:37;;;;;;;0.40;0.40;;;;;;;;;;5034278;28;20201;-87
2024/01/04 05:03:03;;;;;;;0.43;0.43;;;7.90;99.90;;;;;;5049833;28;20201;-87
2024/01/04 05:05:30;;;;;;;1.97;0.50;;;7.80;99.90;;;;;;5031199;28;20570;-87
2024/01/04 05:07:56;;;;;;;0.57;0.40;;;8.00;99.90;;;;;;5051426;28;20657;-87
2024/01/04 05:10:22;;;;;;;0.75;0.30;;;7.70;99.90;;;;;;5034200;28;20199;-86
2024/01/04 05:12:48;;;;;;;1.98;0.52;;;;;;;;;;5028878;28;20185;-88
2024/01/04 05:15:13;;;;;;;0.30;0.22;;;7.70;99.90;;;;;;5032597;28;20212;-88
2024/01/04 05:17:39;;;;;;;2.83;0.50;;;;;;;;;;5059192;28;20172;-85
2024/01/04 05:20:05;;;;;;;1.45;0.80;;;7.60;99.90;;;;;;5054271;28;20191;-85
2024/01/04 05:22:32;;;;;;;0.40;0.30;;;7.50;99.90;;;;;;5038948;28;20236;-86
2024/01/04 05:24:58;;;;;;;0.95;0.40;;;8.90;99.90;;;;;;5035245;28;20255;-84
2024/01/04 05:27:23;;;;;;;1.90;0.37;;;7.40;99.90;;;;;;5040109;28;20597;-87
2024/01/04 05:29:49;;;;;;;1.77;0.67;;;7.60;99.90;;;;;;5034087;28;20724;-85
2024/01/04 05:32:14;;;;;;;0.70;0.50;;;7.60;99.90;;;;;;5042238;28;20173;-84
2024/01/04 05:34:42;;;;;;;0.80;0.30;;;7.60;99.90;;;;;;5043819;28;20177;-88
2024/01/04 05:37:08;;;;;;;1.95;0.45;;;7.60;99.90;;;;;;5033074;28;20758;-89
2024/01/04 05:39:34;;;;;;;0.40;0.30;;;7.50;99.90;;;;;;5034125;28;20220;-88
2024/01/04 05:42:00;;;;;;;1.15;0.77;;;7.50;99.90;;;;;;5030640;28;20201;-89
2024/01/04 05:44:25;;;;;;;0.30;0.20;;;8.50;99.90;;;;;;5037668;28;20550;-86
2024/01/04 05:46:51;;;;;;;4.87;0.53;;;;;;;;;;5033473;28;20243;-89
2024/01/04 05:49:17;;;;;;;0.60;0.43;;;;;;;;;;5041767;28;20173;-84
2024/01/04 05:51:43;;;;;;;0.60;0.50;;;7.50;99.90;;;;;;5058751;28;20440;-87
2024/01/04 05:54:09;;;;;;;0.30;0.30;;;;;;;;;;5033605;28;20192;-88
2024/01/04 05:56:35;;;;;;;0.95;0.30;;;7.50;99.90;;;;;;5034256;28;20212;-85
2024/01/04 05:59:01;;;;;;;0.40;0.30;;;;;;;;;;5025467;28;20197;-87
2024/01/04 06:01:26;;;;;;;1.37;1.33;;;7.60;99.90;;;;;;5049904;28;20189;-86
2024/01/04 06:03:52;;;;;;;0.40;0.30;;;;;;;;;;5031359;28;20479;-85
2024/01/04 06:06:19;;;;;;;0.53;0.43;;;;;;;;;;5048983;28;20205;-87
2024/01/04 06:08:45;;;;;;;1.85;1.13;;;7.70;99.90;;;;;;5037453;28;20474;-88
2024/01/04 06:11:11;;;;;;;1.13;0.57;;;;;;;;;;5042304;28;20282;-87
2024/01/04 06:13:37;;;;;;;0.40;0.30;;;7.80;99.90;;;;;;5054566;28;20192;-85
2024/01/04 06:16:09;;;;;;;2.70;0.60;;;9.60;99.90;;;;;;5052786;28;20217;-88
2024/01/04 06:18:35;;;;;;;0.60;0.40;;;7.80;99.90;;;;;;5038352;28;20193;-88
2024/01/04 06:21:01;;;;;;;2.05;0.60;;;7.70;99.90;;;;;;5042046;28;20177;-87
2024/01/04 06:23:31;;;;;;;2.83;1.17;;;9.70;99.90;;;;;;5039387;28;20197;-87
2024/01/04 06:25:57;;;;;;;7.32;0.93;;;7.70;99.90;;;;;;5054117;28;20205;-88
2024/01/04 06:28:23;;;;;;;0.30;0.30;;;;;;;;;;5040844;28;20177;-86
2024/01/04 06:30:49;;;;;;;0.30;0.20;;;7.70;99.90;;;;;;5053129;28;20194;-87
2024/01/04 06:33:15;;;;;;;0.93;0.87;;;;;;;;;;5054056;28;20670;-87
2024/01/04 06:35:42;;;;;;;0.40;0.40;;;7.70;99.90;;;;;;5049337;28;20439;-86
2024/01/04 06:38:08;;;;;;;1.25;0.40;;;7.70;99.90;;;;;;5033894;28;20231;-85
2024/01/04 06:40:34;;;;;;;2.88;0.40;;;7.60;99.90;;;;;;5050885;28;22718;-88
2024/01/04 06:43:03;;;;;;;0.95;0.40;;;7.60;99.90;;;;;;5035671;28;20200;-87
2024/01/04 06:45:29;;;;;;;0.60;0.50;;;7.40;99.90;;;;;;5035880;28;20231;-88
2024/01/04 06:47:55;;;;;;;0.30;0.30;;;7.50;99.90;;;;;;5034981;28;20192;-86
2024/01/04 06:50:21;;;;;;;0.43;0.37;;;7.50;99.90;;;;;;5035936;28;20181;-87
2024/01/04 06:52:46;;;;;;;4.18;1.00;;;7.50;99.90;;;;;;5054610;28;20216;-89
2024/01/04 06:55:15;;;;;;;8.50;0.80;;;7.50;99.90;;;;;;5045208;28;20296;-85
2024/01/04 06:57:42;;;;;;;5.25;0.40;;;;;;;;;;5065468;28;20193;-86
2024/01/04 07:00:08;;;;;;;3.35;0.40;;;7.80;99.90;;;;;;5033875;28;21541;-87
2024/01/04 07:02:35;;;;;;;0.50;0.40;;;7.50;99.90;;;;;;5029384;28;20209;-84
2024/01/04 07:05:05;;;;;;;0.55;0.30;;;7.60;99.90;;;;;;5030960;28;20274;-86
2024/01/04 07:07:31;;;;;;;0.85;0.40;;;7.60;99.90;;;;;;5045300;28;20185;-87
2024/01/04 07:09:58;;;;;;;1.03;0.73;;;7.50;99.90;;;;;;5046565;28;20200;-86
2024/01/04 07:12:29;;;;;;;0.60;0.60;;;7.60;99.90;;;;;;5044240;28;20440;-87
2024/01/04 07:14:55;;;;;;;2.92;0.50;;;;;;;;;;5025469;28;20223;-86
2024/01/04 07:17:26;;;;;;;2.58;1.02;;;7.60;99.90;;;;;;5043328;28;20296;-87
2024/01/04 07:19:52;;;;;;;1.23;0.40;;;;;;;;;;5045191;28;20199;-87
2024/01/04 07:22:20;;;;;;;0.50;0.43;;;7.50;99.90;;;;;;5018748;28;20197;-86
2024/01/04 07:24:47;;;;;;;1.08;0.45;;;8.70;99.90;;;;;;5045010;28;20193;-87
2024/01/04 07:27:29;;;;;;;8.52;1.10;;;7.50;99.90;;;;;;5027526;28;20271;-90
2024/01/04 07:29:56;;;;;;;0.30;0.20;;;9.40;99.90;;;;;;5044269;28;20188;-91
2024/01/04 07:32:22;;;;;;;0.80;0.55;;;9.20;99.90;;;;;;5021818;28;20193;-88
2024/01/04 07:34:50;;;;;;;2.47;0.57;;;7.40;99.90;;;;;;5047724;28;20203;-88
2024/01/04 07:37:23;;;;;;;1.40;0.50;;;8.80;99.90;;;;;;5030234;28;20268;-86
2024/01/04 07:39:49;;;;;;;0.40;0.40;;;7.30;99.90;;;;;;5037004;28;20182;-85
2024/01/04 07:42:15;;;;;;;0.30;0.20;;;;;;;;;;5029262;28;20189;-88
2024/01/04 07:44:41;;;;;;;1.85;0.47;;;7.40;99.90;;;;;;5032447;28;20523;-85
2024/01/04 07:47:12;;;;;;;0.30;0.20;;;6.80;99.90;;;;;;5029119;28;20300;-87
2024/01/04 07:49:38;;;;;;;9.27;1.10;;;7.30;99.90;;;;;;5023505;28;20181;-87
2024/01/04 07:52:04;;;;;;;1.63;0.70;;;;;;;;;;5027569;28;20188;-86
2024/01/04 07:54:29;;;;;;;0.45;0.45;;;7.40;99.90;;;;;;5046983;28;20866;-89
2024/01/04 07:56:55;;;;;;;0.40;0.40;;;;;;;;;;5045459;28;20301;-88
2024/01/04 07:59:22;;;;;;;1.23;0.40;;;;;;;;;;5046903;28;20191;-88
2024/01/04 08:01:49;;;;;;;0.75;0.40;;;;;;;;;;5040967;28;20518;-86
2024/01/04 08:04:15;;;;;;;1.13;0.40;;;;;;;;;;5051928;28;20173;-85
2024/01/04 08:06:41;;;;;;;2.05;0.60;;;;;;;;;;5025598;28;20201;-85
2024/01/04 08:09:09;;;;;;;6.83;0.57;;;;;;;;;;5024151;28;20334;-86
2024/01/04 08:11:35;;;;;;;8.07;0.63;;;7.70;99.90;;;;;;5045855;28;20960;-89
2024/01/04 08:14:02;;;;;;;1.80;0.90;;;;;;;;;;5029781;28;20192;-88
2024/01/04 08:16:28;;;;;;;2.42;0.60;;;;;;;;;;5031178;28;20200;-84
2024/01/04 08:18:56;;;;;;;2.53;0.63;;;;;;;;;;5048005;28;20189;-88
2024/01/04 08:21:29;;;;;;;0.45;0.45;;;7.80;99.90;;;;;;5034948;28;20439;-87
2024/01/04 08:23:55;;;;;;;0.70;0.70;;;8.40;99.90;;;;;;5047599;28;20205;-91
2024/01/04 08:26:24;;;;;;;3.03;0.30;;;8.00;99.90;;;;;;5033662;28;20942;-86
2024/01/04 08:28:49;;;;;;;4.68;1.05;;;7.70;99.90;;;;;;5058248;28;20185;-88
2024/01/04 08:31:16;;;;;;;2.10;0.60;;;;;;;;;;5067287;28;20187;-86
2024/01/04 08:33:41;;;;;;;3.90;0.68;;;;;;;;;;5046308;28;20181;-89
2024/01/04 08:36:20;;;;;;;0.90;0.43;;;8.20;99.90;;;;;;5053098;28;20214;-88
2024/01/04 08:39:31;;;;;;;1.85;0.57;;;8.20;99.90;;;;;;5032410;28;20929;-91
2024/01/04 08:45:39;;;;;;;2.80;0.30;;;7.10;99.90;;;;;;4967142;28;20235;-88
2024/01/04 08:48:08;;;;;;;0.60;0.55;;;10.00;99.90;;;;;;5047894;28;20178;-86
2024/01/04 08:50:42;;;;;;;1.20;0.60;;;8.70;99.90;;;;;;5049040;28;20181;-86
2024/01/04 08:53:20;;;;;;;0.50;0.50;;;8.50;99.90;;;;;;5037511;28;20169;-85
2024/01/04 08:55:47;;;;;;;0.60;0.45;;;;;;;;;;5028526;28;21101;-88
2024/01/04 08:58:22;;;;;;;1.85;0.88;;;9.10;99.90;;;;;;5032976;28;20189;-85
2024/01/04 09:01:01;;;;;;;;;;;;;;;;;;;;;
2024/01/04 09:03:55;;;;;;;0.98;0.60;;;9.50;99.90;;;;;;5041500;28;20212;-88
2024/01/04 09:06:32;;;;;;;1.27;0.70;;;9.40;99.90;;;;;;5030912;28;20273;-88
2024/01/04 09:09:07;;;;;;;0.50;0.40;;;9.10;99.90;;;;;;5046974;28;20199;-86
2024/01/04 09:11:52;;;;;;;1.25;0.38;;;9.10;99.90;;;;;;5034236;28;20464;-86
2024/01/04 09:14:58;;;;;;;2.60;0.80;;;10.60;99.90;;;;;;5021668;28;20181;-87
2024/01/04 09:17:31;;;;;;;0.73;0.30;;;9.40;99.90;;;;;;5044567;28;20192;-87
2024/01/04 09:19:58;;;;;;;5.88;0.55;;;;;;;;;;5046287;28;20181;-87
2024/01/04 09:22:24;;;;;;;2.10;0.98;;;;;;;;;;5038278;28;20208;-84
2024/01/04 09:24:55;;;;;;;9.90;0.80;;;9.30;99.90;;;;;;5020277;28;20292;-85
2024/01/04 09:27:23;;;;;;;7.18;0.98;;;;;;;;;;5020740;28;20639;-84
2024/01/04 09:29:50;;;;;;;7.63;0.77;;;;;;;;;;5017054;28;20183;-88
2024/01/04 09:32:21;;;;;;;0.77;0.60;;;9.00;99.90;;;;;;5025859;28;20188;-87
2024/01/04 09:34:55;;;;;;;0.60;0.35;;;8.70;99.90;;;;;;5043867;28;20177;-85
2024/01/04 09:37:36;;;;;;;10.55;2.25;;;8.60;99.90;;;;;;5043544;28;20224;-86
2024/01/04 09:40:12;;;;;;;0.50;0.30;;;8.70;99.90;;;;;;5050202;28;20185;-88
2024/01/04 09:42:40;;;;;;;0.57;0.30;;;8.70;99.90;;;;;;5033985;28;20291;-85
2024/01/04 09:45:11;;;;;;;1.50;0.90;;;9.10;99.90;;;;;;5035672;28;20212;-87
2024/01/04 09:47:40;;;;;;;0.50;0.40;;;8.70;99.90;;;;;;5036086;28;20189;-91
2024/01/04 09:50:29;;;;;;;0.50;0.40;;;9.80;99.90;;;;;;5038020;28;21293;-90
2024/01/04 09:53:00;;;;;;;1.45;0.55;;;10.10;99.90;;;;;;5049221;28;20174;-88
2024/01/04 09:55:38;;;;;;;2.85;0.80;;;9.70;99.90;;;;;;5048342;28;20204;-90
2024/01/04 09:58:09;;;;;;;0.60;0.43;;;8.80;99.90;;;;;;5028359;28;20177;-83
2024/01/04 10:00:35;;;;;;;0.40;0.20;;;9.70;99.90;;;;;;5032254;28;20192;-89
2024/01/04 10:03:07;;;;;;;4.82;1.60;;;9.20;99.90;;;;;;5052202;28;20231;-89
2024/01/04 10:05:36;;;;;;;1.60;0.63;;;9.80;99.90;;;;;;5048576;28;20209;-87
2024/01/04 10:08:19;;;;;;;2.42;1.67;;;9.10;99.90;;;;;;5049904;28;20208;-87
2024/01/04 10:10:57;;;;;;;3.20;0.40;;;8.40;99.90;;;;;;5026679;28;20659;-88
2024/01/04 10:13:27;;;;;;;0.40;0.30;;;9.10;99.90;;;;;;5031030;28;20246;-85
2024/01/04 10:15:53;;;;;;;1.10;0.65;;;8.80;99.90;;;;;;5033360;28;20208;-89
2024/01/04 10:18:19;;;;;;;0.57;0.57;;;9.30;99.90;;;;;;5049022;28;20204;-86
2024/01/04 10:21:05;;;;;;;0.40;0.30;;;9.10;99.90;;;;;;5031831;28;20181;-89
2024/01/04 10:23:31;;;;;;;5.93;0.47;;;8.90;99.90;;;;;;5042963;28;21028;-82
2024/01/04 10:26:11;;;;;;;0.40;0.30;;;10.60;99.90;;;;;;5031554;28;20200;-86
2024/01/04 10:28:38;;;;;;;3.05;0.30;;;10.10;99.90;;;;;;5046860;28;20589;-85
2024/01/04 10:31:07;;;;;;;0.63;0.30;;;9.70;99.90;;;;;;5032663;28;20210;-85
2024/01/04 10:33:33;;;;;;;0.73;0.30;;;9.70;99.90;;;;;;5043034;28;20208;-85
2024/01/04 10:36:10;;;;;;;2.67;0.67;;;9.50;99.90;;;;;;5044630;28;20225;-85
2024/01/04 10:38:36;;;;;;;1.25;0.55;;;10.20;99.90;;;;;;5024094;28;20496;-84
2024/01/04 10:41:04;;;;;;;4.93;1.05;;;10.10;99.90;;;;;;5027846;28;20496;-86
2024/01/04 10:43:33;;;;;;;0.70;0.50;;;10.20;99.90;;;;;;5024223;28;20216;-86
2024/01/04 10:46:08;;;;;;;1.45;0.57;;;10.20;99.90;;;;;;5043352;28;20554;-83
2024/01/04 10:48:37;;;;;;;1.08;0.60;;;10.10;99.90;;;;;;5040867;28;20165;-85
2024/01/04 10:51:06;;;;;;;3.25;0.52;;;9.90;99.90;;;;;;5049969;28;20278;-84
2024/01/04 10:53:35;;;;;;;6.10;0.63;;;9.80;99.90;;;;;;5025195;28;20204;-85
2024/01/04 10:56:06;;;;;;;0.82;0.73;;;9.80;99.90;;;;;;5044506;28;20374;-86
2024/01/04 10:58:40;;;;;;;15.05;1.23;;;9.90;99.90;;;;;;5039364;28;20189;-86
2024/01/04 11:01:06;;;;;;;0.52;0.40;;;11.70;99.90;;;;;;5053133;28;20714;-89
2024/01/04 11:03:32;;;;;;;0.57;0.50;;;9.60;99.90;;;;;;5027832;28;20221;-85
2024/01/04 11:05:59;;;;;;;1.63;0.98;;;9.70;99.90;;;;;;5024143;28;20463;-87
2024/01/04 11:08:31;;;;;;;4.00;0.50;;;9.40;99.90;;;;;;5017746;28;20189;-85
2024/01/04 11:10:58;;;;;;;7.45;0.65;;;9.60;99.90;;;;;;5029688;28;20315;-86
2024/01/04 11:13:24;;;;;;;11.68;0.80;;;9.70;99.90;;;;;;5015801;28;20236;-87
2024/01/04 11:15:53;;;;;;;1.60;0.73;;;9.70;99.90;;;;;;5020130;28;20283;-85
2024/01/04 11:18:43;;;;;;;1.58;0.63;;;9.70;99.90;;;;;;5014977;28;20192;-88
2024/01/04 11:21:33;;;;;;;2.00;0.70;;;9.50;99.90;;;;;;5013051;28;20205;-88
2024/01/04 11:24:12;;;;;;;0.68;0.65;;;9.00;99.90;;;;;;5028768;28;20217;-85
2024/01/04 11:26:44;;;;;;;2.15;0.40;;;8.80;99.90;;;;;;5016867;28;20294;-83
2024/01/04 11:29:10;;;;;;;1.30;0.60;;;8.60;99.90;;;;;;5033942;28;20193;-85
2024/01/04 11:31:42;;;;;;;1.00;0.47;;;8.70;99.90;;;;;;5013254;28;21877;-85
2024/01/04 11:34:15;;;;;;;0.40;0.30;;;8.60;99.90;;;;;;5013339;28;20409;-84
2024/01/04 11:36:41;;;;;;;3.15;0.50;;;8.50;99.90;;;;;;5007056;28;20216;-85
2024/01/04 11:39:07;;;;;;;0.75;0.30;;;8.40;99.90;;;;;;5008463;28;20193;-86
2024/01/04 11:41:37;;;;;;;0.40;0.40;;;8.50;99.90;;;;;;5031935;28;20196;-87
2024/01/04 11:44:03;;;;;;;0.40;0.30;;;8.50;99.90;;;;;;5051461;28;20208;-86
2024/01/04 11:46:32;;;;;;;4.45;0.65;;;8.60;99.90;;;;;;5066480;28;20205;-84
2024/01/04 11:49:04;;;;;;;3.13;1.75;;;8.70;99.90;;;;;;5044025;28;20178;-88
2024/01/04 11:51:34;;;;;;;11.60;0.95;;;8.90;99.90;;;;;;5039353;28;20196;-84
2024/01/04 11:54:00;;;;;;;0.95;0.40;;;9.10;99.90;;;;;;5022053;28;20197;-89
2024/01/04 11:56:26;;;;;;;1.17;0.97;;;9.10;99.90;;;;;;5014607;28;20250;-88
2024/01/04 11:58:52;;;;;;;0.80;0.40;;;10.70;99.90;;;;;;5017784;28;20189;-86
2024/01/04 12:01:27;;;;;;;0.70;0.40;;;8.80;99.90;;;;;;5014556;28;21124;-83
2024/01/04 12:03:54;;;;;;;4.30;0.70;;;8.70;99.90;;;;;;5014191;28;20197;-89
2024/01/04 12:06:21;;;;;;;4.55;0.82;;;8.60;99.90;;;;;;5036324;28;20201;-83
2024/01/04 12:08:51;;;;;;;0.50;0.50;;;8.40;99.90;;;;;;5010821;28;20189;-87
2024/01/04 12:11:19;;;;;;;1.73;0.80;;;8.10;99.90;;;;;;5029205;28;20192;-87
2024/01/04 12:13:45;;;;;;;0.40;0.30;;;8.40;99.90;;;;;;5013039;28;20292;-84
2024/01/04 12:16:11;;;;;;;0.40;0.30;;;7.60;99.90;;;;;;5035923;28;20291;-84
2024/01/04 12:18:37;;;;;;;1.03;0.30;;;7.40;99.90;;;;;;5021242;28;20276;-86
2024/01/04 12:21:07;;;;;;;2.55;0.38;;;7.30;99.90;;;;;;5023445;28;20256;-84
2024/01/04 12:23:34;;;;;;;0.50;0.50;;;7.20;99.90;;;;;;5037655;28;20209;-87
2024/01/04 12:26:00;;;;;;;0.52;0.40;;;7.40;99.90;;;;;;5027579;28;20243;-84
2024/01/04 12:28:27;;;;;;;9.27;0.97;;;7.50;99.90;;;;;;5030146;28;20181;-81
2024/01/04 12:30:53;;;;;;;0.63;0.50;;;7.60;99.90;;;;;;5027486;28;21231;-84
2024/01/04 12:33:18;;;;;;;1.27;0.60;;;7.70;99.90;;;;;;5041264;28;20194;-86
2024/01/04 12:35:44;;;;;;;1.13;0.33;;;7.70;99.90;;;;;;5040623;28;20540;-85
2024/01/04 12:38:10;;;;;;;0.40;0.40;;;7.70;99.90;;;;;;5025055;28;20181;-88
2024/01/04 12:40:43;;;;;;;0.60;0.30;;;7.80;99.90;;;;;;5031636;28;20527;-85
2024/01/04 12:43:20;;;;;;;0.40;0.40;;;7.80;99.90;;;;;;5023710;28;20205;-85
2024/01/04 12:45:46;;;;;;;0.93;0.52;;;7.90;99.90;;;;;;5022662;28;20210;-85
2024/01/04 12:48:20;;;;;;;0.65;0.32;;;8.00;99.90;;;;;;5029294;28;20215;-83
2024/01/04 12:50:45;;;;;;;3.90;0.88;;;8.10;99.90;;;;;;5036752;28;20874;-86
2024/01/04 12:57:10;;;;;;;1.60;0.60;;;8.00;99.90;;;;;;5083763;23;20521;-82
2024/01/04 12:59:37;;;;;;;0.55;0.35;;;;;;;;;;5041812;28;20249;-86
2024/01/04 13:02:03;;;;;;;0.30;0.20;;;8.30;99.90;;;;;;5031648;28;20189;-85
2024/01/04 13:04:29;;;;;;;3.72;0.68;;;;;;;;;;5039302;28;21244;-89
2024/01/04 13:06:55;;;;;;;0.77;0.40;;;;;;;;;;5050743;28;20299;-87
2024/01/04 13:09:21;;;;;;;3.05;0.80;;;;;;;;;;5036555;28;20843;-87
2024/01/04 13:11:47;;;;;;;3.07;0.50;;;;;;;;;;5035111;28;20247;-87
2024/01/04 13:14:13;;;;;;;2.13;0.53;;;;;;;;;;5035416;28;20447;-86
2024/01/04 13:16:58;;;;;;;8.23;1.38;;;8.20;99.90;;;;;;5031471;28;20944;-87
2024/01/04 13:19:41;;;;;;;8.13;0.77;;;8.20;99.90;;;;;;5035056;28;20177;-84
2024/01/04 13:22:09;;;;;;;1.25;0.60;;;9.40;99.90;;;;;;5045509;28;20185;-88
2024/01/04 13:24:35;;;;;;;0.40;0.30;;;;;;;;;;5052333;28;20196;-87
2024/01/04 13:27:03;;;;;;;5.03;0.60;;;;;;;;;;5034412;28;20226;-84
2024/01/04 13:29:29;;;;;;;1.55;1.02;;;;;;;;;;5050599;28;20439;-86